createdAt,value
2022-11-04T00:01:25.389Z,13.97
2022-11-04T00:03:54.576Z,12.53
2022-11-04T00:06:22.239Z,16.87
2022-11-04T00:08:50.480Z,14.50
2022-11-04T00:11:35.266Z,17.50
2022-11-04T00:14:02.850Z,16.37
2022-11-04T00:16:47.932Z,13.90
2022-11-04T00:19:16.893Z,20.40
2022-11-04T00:22:02.347Z,16.33
2022-11-04T00:24:47.065Z,17.70
2022-11-04T00:27:32.830Z,13.97
2022-11-04T00:30:00.471Z,13.30
2022-11-04T00:32:45.210Z,13.17
2022-11-04T00:35:14.154Z,12.47
2022-11-04T00:37:42.522Z,14.50
2022-11-04T00:40:11.433Z,13.27
2022-11-04T00:42:38.975Z,11.43
2022-11-04T00:45:07.259Z,9.87
2022-11-04T00:47:34.793Z,12.43
2022-11-04T00:50:02.347Z,11.73
2022-11-04T00:52:31.197Z,9.20
2022-11-04T00:54:58.763Z,10.70
2022-11-04T00:57:26.305Z,10.07
2022-11-04T00:59:53.791Z,9.77
2022-11-04T01:02:21.444Z,8.00
2022-11-04T01:04:49.139Z,8.27
2022-11-04T01:07:16.600Z,8.97
2022-11-04T01:09:45.501Z,7.53
2022-11-04T01:12:13.045Z,9.70
2022-11-04T01:14:40.505Z,5.77
2022-11-04T01:17:08.093Z,5.47
2022-11-04T01:19:35.788Z,7.53
2022-11-04T01:22:03.224Z,5.43
2022-11-04T01:24:30.746Z,5.60
2022-11-04T01:26:59.501Z,5.73
2022-11-04T01:29:27.013Z,5.10
2022-11-04T01:31:54.418Z,5.43
2022-11-04T01:34:21.892Z,5.70
2022-11-04T01:36:49.369Z,7.60
2022-11-04T01:39:16.808Z,4.90
2022-11-04T01:41:44.245Z,4.73
2022-11-04T01:44:30.181Z,4.43
2022-11-04T01:46:59.629Z,5.40
2022-11-04T01:49:28.246Z,4.03
2022-11-04T01:51:57.763Z,3.60
2022-11-04T01:54:25.587Z,2.70
2022-11-04T01:56:53.797Z,2.53
2022-11-04T01:59:22.380Z,3.63
2022-11-04T02:01:49.938Z,3.33
2022-11-04T02:04:28.241Z,1.80
2022-11-04T02:06:56.665Z,2.10
2022-11-04T02:09:25.404Z,2.53
2022-11-04T02:12:10.283Z,1.30
2022-11-04T02:14:38.033Z,1.90
2022-11-04T02:17:10.096Z,1.53
2022-11-04T02:19:49.638Z,1.57
2022-11-04T02:22:26.861Z,1.10
2022-11-04T02:25:22.802Z,1.10
2022-11-04T02:27:59.661Z,1.37
2022-11-04T02:30:34.285Z,0.93
2022-11-04T02:33:07.560Z,1.00
2022-11-04T02:35:40.638Z,0.90
2022-11-04T02:38:11.993Z,0.77
2022-11-04T02:40:42.430Z,0.70
2022-11-04T02:43:13.255Z,1.73
2022-11-04T02:45:44.201Z,1.10
2022-11-04T02:48:17.425Z,0.87
2022-11-04T02:50:46.579Z,0.70
2022-11-04T02:53:16.494Z,1.07
2022-11-04T02:55:45.090Z,1.07
2022-11-04T02:58:15.590Z,0.70
2022-11-04T03:00:45.097Z,0.67
2022-11-04T03:03:14.938Z,0.60
2022-11-04T03:05:45.311Z,1.00
2022-11-04T03:08:19.094Z,0.60
2022-11-04T03:10:48.393Z,1.00
2022-11-04T03:13:17.333Z,0.60
2022-11-04T03:15:50.272Z,0.60
2022-11-04T03:18:22.257Z,0.67
2022-11-04T03:20:50.001Z,0.70
2022-11-04T03:23:17.680Z,0.60
2022-11-04T03:25:46.120Z,0.97
2022-11-04T03:28:21.989Z,0.50
2022-11-04T03:30:52.734Z,0.73
2022-11-04T03:33:23.203Z,0.97
2022-11-04T03:35:50.677Z,0.73
2022-11-04T03:38:18.291Z,0.50
2022-11-04T03:40:45.720Z,1.07
2022-11-04T03:43:16.033Z,1.10
2022-11-04T03:45:43.739Z,2.20
2022-11-04T03:48:13.151Z,1.43
2022-11-04T03:50:41.606Z,1.80
2022-11-04T03:53:10.099Z,2.03
2022-11-04T03:55:42.233Z,0.43
2022-11-04T03:58:11.396Z,0.60
2022-11-04T04:00:45.289Z,0.40
2022-11-04T04:03:16.962Z,3.80
2022-11-04T04:05:46.724Z,0.63
2022-11-04T04:08:16.775Z,0.77
2022-11-04T04:10:51.105Z,0.50
2022-11-04T04:13:21.268Z,0.73
2022-11-04T04:15:51.462Z,1.63
2022-11-04T04:18:24.744Z,0.40
2022-11-04T04:20:53.054Z,1.13
2022-11-04T04:23:41.108Z,0.50
2022-11-04T04:26:26.906Z,0.63
2022-11-04T04:28:55.570Z,0.60
2022-11-04T04:31:41.973Z,1.50
2022-11-04T04:34:11.004Z,0.60
2022-11-04T04:36:41.201Z,0.63
2022-11-04T04:39:28.586Z,1.00
2022-11-04T04:42:13.796Z,1.60
2022-11-04T04:45:00.932Z,1.17
2022-11-04T04:47:30.714Z,0.50
2022-11-04T04:50:00.258Z,2.97
2022-11-04T04:52:28.615Z,0.60
2022-11-04T04:54:56.077Z,1.23
2022-11-04T04:57:23.487Z,1.37
2022-11-04T04:59:50.949Z,0.60
2022-11-04T05:02:18.601Z,1.10
2022-11-04T05:04:46.138Z,0.73
2022-11-04T05:07:14.889Z,0.63
2022-11-04T05:09:42.354Z,2.30
2022-11-04T05:12:09.963Z,2.30
2022-11-04T05:14:37.459Z,1.00
2022-11-04T05:17:04.854Z,1.40
2022-11-04T05:19:32.272Z,1.80
2022-11-04T05:21:59.666Z,1.70
2022-11-04T05:24:28.618Z,0.73
2022-11-04T05:26:56.042Z,1.57
2022-11-04T05:29:23.484Z,2.53
2022-11-04T05:31:51.002Z,0.60
2022-11-04T05:34:18.499Z,0.83
2022-11-04T05:36:45.975Z,1.57
2022-11-04T05:39:14.154Z,1.00
2022-11-04T05:41:42.895Z,0.70
2022-11-04T05:44:11.521Z,2.10
2022-11-04T05:46:39.269Z,1.93
2022-11-04T05:49:06.877Z,2.67
2022-11-04T05:51:34.537Z,4.77
2022-11-04T05:54:02.749Z,1.47
2022-11-04T05:56:30.553Z,2.00
2022-11-04T05:58:59.585Z,1.87
2022-11-04T06:01:29.496Z,1.60
2022-11-04T06:03:57.702Z,1.37
2022-11-04T06:06:26.249Z,1.60
2022-11-04T06:08:53.871Z,2.93
2022-11-04T06:11:22.198Z,2.37
2022-11-04T06:13:49.780Z,3.63
2022-11-04T06:16:18.699Z,3.07
2022-11-04T06:18:46.283Z,1.77
2022-11-04T06:21:22.501Z,1.10
2022-11-04T06:23:50.169Z,1.63
2022-11-04T06:26:18.388Z,1.10
2022-11-04T06:28:45.983Z,1.43
2022-11-04T06:31:14.151Z,2.40
2022-11-04T06:33:43.245Z,1.10
2022-11-04T06:36:12.217Z,2.40
2022-11-04T06:38:40.078Z,3.00
2022-11-04T06:41:08.354Z,2.13
2022-11-04T06:43:35.758Z,1.57
2022-11-04T06:46:03.502Z,1.70
2022-11-04T06:48:31.569Z,4.60
2022-11-04T06:51:00.567Z,1.10
2022-11-04T06:53:29.081Z,2.40
2022-11-04T06:56:02.319Z,1.40
2022-11-04T06:58:29.769Z,0.80
2022-11-04T07:00:57.516Z,2.30
2022-11-04T07:03:25.029Z,2.27
2022-11-04T07:05:52.468Z,2.87
2022-11-04T07:08:21.305Z,3.03
2022-11-04T07:10:48.720Z,1.67
2022-11-04T07:13:16.772Z,1.53
2022-11-04T07:15:44.186Z,1.47
2022-11-04T07:18:11.919Z,1.73
2022-11-04T07:20:40.093Z,1.77
2022-11-04T07:23:07.544Z,2.47
2022-11-04T07:25:36.319Z,1.40
2022-11-04T07:28:03.738Z,1.53
2022-11-04T07:30:31.174Z,1.93
2022-11-04T07:32:58.705Z,1.23
2022-11-04T07:35:26.135Z,1.57
2022-11-04T07:37:53.741Z,3.13
2022-11-04T07:40:21.198Z,2.83
2022-11-04T07:42:49.968Z,2.10
2022-11-04T07:45:17.498Z,2.53
2022-11-04T07:47:44.889Z,1.40
2022-11-04T07:50:12.398Z,3.57
2022-11-04T07:52:40.056Z,1.90
2022-11-04T07:55:09.981Z,1.47
2022-11-04T07:57:37.429Z,1.53
2022-11-04T08:00:07.318Z,1.33
2022-11-04T08:02:35.483Z,2.67
2022-11-04T08:05:03.081Z,1.50
2022-11-04T08:07:30.527Z,1.73
2022-11-04T08:09:58.063Z,1.83
2022-11-04T08:12:25.499Z,2.00
2022-11-04T08:14:52.935Z,1.87
2022-11-04T08:17:21.770Z,6.20
2022-11-04T08:19:49.864Z,1.83
2022-11-04T08:22:17.450Z,5.00
2022-11-04T08:24:47.179Z,2.63
2022-11-04T08:27:14.622Z,4.20
2022-11-04T08:29:42.127Z,12.90
2022-11-04T08:32:09.566Z,2.50
2022-11-04T08:34:38.377Z,3.80
2022-11-04T08:37:05.816Z,2.60
2022-11-04T08:39:33.211Z,1.47
2022-11-04T08:42:01.127Z,3.70
2022-11-04T08:44:28.614Z,5.03
2022-11-04T08:46:56.071Z,1.87
2022-11-04T08:49:23.638Z,3.00
2022-11-04T08:51:56.633Z,3.30
2022-11-04T08:54:24.469Z,2.47
2022-11-04T08:56:51.983Z,2.10
2022-11-04T08:59:19.504Z,3.10
2022-11-04T09:01:47.029Z,2.33
2022-11-04T09:04:14.731Z,2.17
2022-11-04T09:06:43.922Z,2.73
2022-11-04T09:09:14.047Z,2.70
2022-11-04T09:11:42.729Z,2.43
2022-11-04T09:14:10.776Z,1.80
2022-11-04T09:16:38.527Z,3.03
2022-11-04T09:19:06.164Z,3.30
2022-11-04T09:21:33.791Z,3.87
2022-11-04T09:24:01.249Z,3.97
2022-11-04T09:26:30.074Z,1.93
2022-11-04T09:28:58.357Z,3.90
2022-11-04T09:31:30.111Z,1.07
2022-11-04T09:33:57.748Z,4.20
2022-11-04T09:36:25.799Z,2.90
2022-11-04T09:38:53.409Z,3.43
2022-11-04T09:41:29.593Z,2.07
2022-11-04T09:44:01.038Z,5.10
2022-11-04T09:46:31.974Z,2.37
2022-11-04T09:49:02.111Z,2.27
2022-11-04T09:51:53.099Z,5.10
2022-11-04T09:54:20.478Z,4.50
2022-11-04T09:56:49.940Z,3.90
2022-11-04T09:59:22.035Z,1.80
2022-11-04T10:01:53.839Z,4.23
2022-11-04T10:04:25.728Z,3.23
2022-11-04T10:07:00.130Z,4.67
2022-11-04T10:09:34.806Z,1.87
2022-11-04T10:12:08.024Z,6.57
2022-11-04T10:14:48.504Z,4.63
2022-11-04T10:17:25.475Z,2.33
2022-11-04T10:20:01.649Z,3.30
2022-11-04T10:22:32.744Z,2.40
2022-11-04T10:25:04.394Z,2.93
2022-11-04T10:27:34.212Z,3.50
2022-11-04T10:30:15.727Z,2.73
2022-11-04T10:32:50.517Z,5.23
2022-11-04T10:35:23.255Z,2.23
2022-11-04T10:37:53.246Z,1.70
2022-11-04T10:40:25.245Z,5.30
2022-11-04T10:42:53.698Z,2.50
2022-11-04T10:45:24.686Z,2.37
2022-11-04T10:47:56.722Z,2.57
2022-11-04T10:50:29.341Z,3.10
2022-11-04T10:53:04.019Z,5.10
2022-11-04T10:55:34.767Z,4.43
2022-11-04T10:58:02.805Z,2.50
2022-11-04T11:00:36.268Z,3.67
2022-11-04T11:03:04.172Z,4.00
2022-11-04T11:05:31.853Z,4.50
2022-11-04T11:08:00.792Z,2.13
2022-11-04T11:10:29.310Z,2.87
2022-11-04T11:12:58.920Z,6.17
2022-11-04T11:15:30.299Z,3.43
2022-11-04T11:18:01.389Z,4.33
2022-11-04T11:20:31.984Z,5.80
2022-11-04T11:23:05.632Z,2.10
2022-11-04T11:25:34.112Z,4.43
2022-11-04T11:28:02.609Z,3.60
2022-11-04T11:30:32.164Z,1.80
2022-11-04T11:33:03.781Z,3.10
2022-11-04T11:35:34.249Z,2.63
2022-11-04T11:38:04.202Z,1.80
2022-11-04T11:40:34.195Z,1.27
2022-11-04T11:43:02.240Z,4.07
2022-11-04T11:45:30.518Z,3.60
2022-11-04T11:47:58.268Z,4.33
2022-11-04T11:50:31.344Z,2.70
2022-11-04T11:53:09.578Z,2.30
2022-11-04T11:55:38.046Z,1.87
2022-11-04T12:01:08.113Z,2.37
2022-11-04T12:09:31.430Z,5.63
2022-11-04T12:12:05.690Z,2.07
2022-11-04T12:14:43.584Z,4.97
2022-11-04T12:17:18.898Z,2.77
2022-11-04T12:19:53.264Z,1.47
2022-11-04T12:22:27.369Z,4.37
2022-11-04T12:25:05.036Z,2.03
2022-11-04T12:27:35.295Z,2.23
2022-11-04T12:30:06.624Z,2.17
2022-11-04T12:32:40.087Z,1.90
2022-11-04T12:35:13.211Z,2.00
2022-11-04T12:37:53.372Z,2.37
2022-11-04T12:40:22.624Z,2.03
2022-11-04T12:43:01.184Z,2.60
2022-11-04T12:45:33.521Z,2.40
2022-11-04T12:48:03.170Z,2.80
2022-11-04T12:50:44.459Z,1.97
2022-11-04T12:53:27.057Z,2.87
2022-11-04T12:56:00.861Z,3.07
2022-11-04T12:58:38.854Z,1.37
2022-11-04T13:01:14.048Z,2.73
2022-11-04T13:03:45.910Z,2.43
2022-11-04T13:06:16.847Z,4.27
2022-11-04T13:08:48.116Z,4.13
2022-11-04T13:11:25.922Z,1.43
2022-11-04T13:14:02.127Z,2.03
2022-11-04T13:16:31.629Z,2.47
2022-11-04T13:18:59.823Z,1.80
2022-11-04T13:21:31.320Z,1.77
2022-11-04T13:24:04.307Z,2.07
2022-11-04T13:26:33.685Z,1.80
2022-11-04T13:29:08.429Z,1.40
2022-11-04T13:31:41.096Z,4.00
2022-11-04T13:34:13.140Z,4.50
2022-11-04T13:36:43.061Z,3.10
2022-11-04T13:39:14.613Z,2.83
2022-11-04T13:41:55.861Z,2.53
2022-11-04T13:44:26.089Z,3.10
2022-11-04T13:46:55.774Z,3.70
2022-11-04T13:49:30.686Z,2.43
2022-11-04T13:52:08.201Z,1.83
2022-11-04T13:54:37.158Z,1.90
2022-11-04T13:57:07.641Z,3.53
2022-11-04T13:59:35.567Z,3.43
2022-11-04T14:02:21.955Z,4.67
2022-11-04T14:04:49.828Z,2.73
2022-11-04T14:07:18.717Z,1.57
2022-11-04T14:09:53.832Z,2.70
2022-11-04T14:12:39.231Z,3.20
2022-11-04T14:15:13.294Z,3.47
2022-11-04T14:17:59.856Z,1.90
2022-11-04T14:20:31.311Z,1.87
2022-11-04T14:23:00.274Z,4.43
2022-11-04T14:25:29.667Z,4.90
2022-11-04T14:27:58.083Z,2.30
2022-11-04T14:30:49.375Z,1.97
2022-11-04T14:33:28.362Z,1.37
2022-11-04T14:35:57.495Z,2.70
2022-11-04T14:38:29.652Z,2.63
2022-11-04T14:41:14.801Z,3.50
2022-11-04T14:43:44.247Z,3.77
2022-11-04T14:46:13.237Z,4.13
2022-11-04T14:48:51.782Z,3.80
2022-11-04T14:51:25.757Z,1.57
2022-11-04T14:53:55.164Z,4.53
2022-11-04T14:56:24.379Z,2.83
2022-11-04T14:58:59.668Z,4.13
2022-11-04T15:01:34.293Z,1.43
2022-11-04T15:04:13.480Z,6.57
2022-11-04T15:06:54.359Z,2.53
2022-11-04T15:09:24.493Z,3.27
2022-11-04T15:12:10.173Z,4.20
2022-11-04T15:14:38.137Z,2.37
2022-11-04T15:17:05.822Z,2.53
2022-11-04T15:19:35.494Z,5.23
2022-11-04T15:22:04.108Z,3.03
2022-11-04T15:24:32.011Z,3.90
2022-11-04T15:27:02.150Z,1.50
2022-11-04T15:29:29.593Z,7.53
2022-11-04T15:31:57.998Z,1.00
2022-11-04T15:34:26.678Z,2.10
2022-11-04T15:36:57.825Z,1.80
2022-11-04T15:39:26.857Z,3.33
2022-11-04T15:42:16.262Z,2.50
2022-11-04T15:44:46.325Z,1.20
2022-11-04T15:47:24.025Z,4.67
2022-11-04T15:49:52.547Z,5.03
2022-11-04T15:52:23.086Z,4.33
2022-11-04T15:54:51.835Z,5.77
2022-11-04T15:57:20.322Z,3.53
2022-11-04T15:59:51.697Z,3.13
2022-11-04T16:02:24.604Z,2.83
2022-11-04T16:05:02.869Z,3.13
2022-11-04T16:07:35.023Z,4.73
2022-11-04T16:10:08.464Z,3.70
2022-11-04T16:12:37.423Z,5.50
2022-11-04T16:15:05.166Z,4.03
2022-11-04T16:17:32.875Z,2.77
2022-11-04T16:20:02.084Z,3.63
2022-11-04T16:22:31.036Z,6.63
2022-11-04T16:25:01.129Z,4.67
2022-11-04T16:27:29.173Z,6.60
2022-11-04T16:30:02.538Z,1.57
2022-11-04T16:32:31.935Z,3.43
2022-11-04T16:35:00.590Z,2.93
2022-11-04T16:37:28.386Z,4.40
2022-11-04T16:39:55.999Z,2.87
2022-11-04T16:42:25.114Z,3.10
2022-11-04T16:44:53.328Z,5.00
2022-11-04T16:47:21.008Z,4.07
2022-11-04T16:49:48.651Z,3.03
2022-11-04T16:52:20.347Z,2.93
2022-11-04T16:54:48.219Z,4.93
2022-11-04T16:57:16.143Z,4.20
2022-11-04T16:59:45.075Z,4.43
2022-11-04T17:02:17.291Z,3.70
2022-11-04T17:04:46.275Z,8.03
2022-11-04T17:07:13.968Z,2.53
2022-11-04T17:09:41.703Z,5.33
2022-11-04T17:12:09.878Z,4.47
2022-11-04T17:14:37.532Z,6.20
2022-11-04T17:17:07.383Z,5.50
2022-11-04T17:19:35.115Z,4.00
2022-11-04T17:22:04.193Z,2.63
2022-11-04T17:24:32.521Z,3.73
2022-11-04T17:27:00.174Z,4.47
2022-11-04T17:29:27.800Z,4.03
2022-11-04T17:31:55.813Z,3.80
2022-11-04T17:34:25.967Z,7.87
2022-11-04T17:36:53.695Z,3.80
2022-11-04T17:39:21.363Z,4.10
2022-11-04T17:42:06.205Z,5.60
2022-11-04T17:44:33.729Z,6.17
2022-11-04T17:47:01.459Z,7.53
2022-11-04T17:49:30.806Z,7.17
2022-11-04T17:52:01.127Z,9.67
2022-11-04T17:54:29.614Z,6.27
2022-11-04T17:56:57.530Z,7.80
2022-11-04T17:59:25.632Z,7.13
2022-11-04T18:01:53.193Z,5.53
2022-11-04T18:04:22.206Z,7.33
2022-11-04T18:06:51.600Z,5.50
2022-11-04T18:09:19.616Z,6.47
2022-11-04T18:12:04.760Z,6.20
2022-11-04T18:14:33.188Z,7.83
2022-11-04T18:17:00.844Z,5.73
2022-11-04T18:19:28.734Z,6.43
2022-11-04T18:21:57.778Z,6.70
2022-11-04T18:24:25.573Z,6.80
2022-11-04T18:26:53.339Z,9.80
2022-11-04T18:29:21.272Z,7.93
2022-11-04T18:31:49.868Z,7.50
2022-11-04T18:34:19.429Z,6.57
2022-11-04T18:36:47.856Z,9.03
2022-11-04T18:39:17.298Z,8.53
2022-11-04T18:41:45.679Z,8.17
2022-11-04T18:44:15.218Z,8.90
2022-11-04T18:46:43.027Z,7.50
2022-11-04T18:49:10.810Z,5.90
2022-11-04T18:51:38.653Z,8.93
2022-11-04T18:54:06.957Z,12.73
2022-11-04T18:56:36.069Z,53.63
2022-11-04T18:59:04.531Z,15.07
2022-11-04T19:01:33.263Z,11.33
2022-11-04T19:04:01.195Z,16.40
2022-11-04T19:06:29.929Z,17.83
2022-11-04T19:08:59.673Z,8.07
2022-11-04T19:11:31.046Z,14.47
2022-11-04T19:14:05.081Z,8.57
2022-11-04T19:16:36.271Z,8.37
2022-11-04T19:19:05.127Z,8.20
2022-11-04T19:21:33.096Z,9.97
2022-11-04T19:24:01.534Z,7.87
2022-11-04T19:26:30.076Z,8.50
2022-11-04T19:28:58.062Z,9.00
2022-11-04T19:31:27.830Z,12.00
2022-11-04T19:33:55.874Z,12.13
2022-11-04T19:36:23.714Z,16.13
2022-11-04T19:38:53.238Z,21.57
2022-11-04T19:41:38.570Z,19.40
2022-11-04T19:44:06.989Z,17.43
2022-11-04T19:46:36.644Z,14.33
2022-11-04T19:49:04.762Z,13.87
2022-11-04T19:51:32.448Z,12.73
2022-11-04T19:54:00.431Z,14.40
2022-11-04T19:56:28.315Z,8.93
2022-11-04T19:58:55.887Z,12.83
2022-11-04T20:01:23.550Z,12.97
2022-11-04T20:03:52.664Z,11.50
2022-11-04T20:06:20.340Z,11.43
2022-11-04T20:08:48.921Z,11.33
2022-11-04T20:11:16.799Z,10.20
2022-11-04T20:13:47.241Z,14.10
2022-11-04T20:16:17.146Z,9.10
2022-11-04T20:18:44.965Z,11.10
2022-11-04T20:21:13.995Z,42.07
2022-11-04T20:23:42.036Z,13.70
2022-11-04T20:26:16.210Z,27.27
2022-11-04T20:28:46.866Z,13.57
2022-11-04T20:31:17.860Z,11.67
2022-11-04T20:33:46.003Z,7.40
2022-11-04T20:36:15.863Z,6.30
2022-11-04T20:38:43.452Z,4.93
2022-11-04T20:41:15.389Z,5.53
2022-11-04T20:43:43.058Z,7.67
2022-11-04T20:46:12.289Z,8.90
2022-11-04T20:48:40.434Z,8.53
2022-11-04T20:51:08.643Z,5.80
2022-11-04T20:53:37.696Z,5.37
2022-11-04T20:56:07.016Z,5.77
2022-11-04T20:58:35.041Z,6.40
2022-11-04T21:01:03.522Z,4.43
2022-11-04T21:03:31.462Z,4.23
2022-11-04T21:05:59.050Z,4.77
2022-11-04T21:08:26.906Z,4.80
2022-11-04T21:10:56.563Z,3.80
2022-11-04T21:13:24.268Z,6.40
2022-11-04T21:15:52.434Z,5.20
2022-11-04T21:18:20.010Z,2.73
2022-11-04T21:20:47.739Z,4.50
2022-11-04T21:23:16.180Z,2.73
2022-11-04T21:25:44.436Z,2.70
2022-11-04T21:28:13.853Z,2.00
2022-11-04T21:30:42.881Z,3.90
2022-11-04T21:33:10.432Z,2.07
2022-11-04T21:35:38.382Z,3.03
2022-11-04T21:38:06.907Z,4.57
2022-11-04T21:40:35.015Z,4.97
2022-11-04T21:43:02.712Z,3.43
2022-11-04T21:45:31.663Z,2.97
2022-11-04T21:47:59.217Z,3.17
2022-11-04T21:50:26.942Z,2.43
2022-11-04T21:52:54.604Z,3.00
2022-11-04T21:55:22.231Z,3.53
2022-11-04T21:57:49.855Z,1.77
2022-11-04T22:00:17.645Z,2.83
2022-11-04T22:02:51.744Z,1.33
2022-11-04T22:05:19.563Z,2.97
2022-11-04T22:08:04.623Z,2.23
2022-11-04T22:10:32.173Z,3.73
2022-11-04T22:12:59.737Z,4.80
2022-11-04T22:15:44.622Z,3.83
2022-11-04T22:18:13.653Z,2.37
2022-11-04T22:20:41.187Z,3.53
2022-11-04T22:23:09.187Z,3.13
2022-11-04T22:25:37.061Z,1.77
2022-11-04T22:28:04.763Z,1.87
2022-11-04T22:30:32.383Z,2.20
2022-11-04T22:33:00.015Z,2.77
2022-11-04T22:35:29.427Z,4.23
2022-11-04T22:37:56.964Z,2.97
2022-11-04T22:40:24.572Z,3.03
2022-11-04T22:42:52.420Z,4.43
2022-11-04T22:45:19.994Z,2.73
2022-11-04T22:47:47.909Z,5.13
2022-11-04T22:50:15.474Z,3.37
2022-11-04T22:52:44.439Z,3.77
2022-11-04T22:55:13.676Z,4.20
2022-11-04T22:57:41.431Z,5.17
2022-11-04T23:00:11.538Z,2.53
2022-11-04T23:02:39.437Z,3.70
2022-11-04T23:05:07.168Z,6.13
2022-11-04T23:07:34.872Z,4.50
2022-11-04T23:10:21.445Z,5.23
2022-11-04T23:13:06.213Z,3.20
2022-11-04T23:15:51.310Z,5.63
2022-11-04T23:18:36.271Z,5.60
2022-11-04T23:21:21.117Z,6.60
2022-11-04T23:24:07.483Z,9.37
2022-11-04T23:26:39.067Z,7.37
2022-11-04T23:29:24.340Z,4.87
2022-11-04T23:31:53.213Z,5.30
2022-11-04T23:34:38.708Z,4.57
2022-11-04T23:37:15.598Z,5.43
2022-11-04T23:39:43.868Z,6.23
2022-11-04T23:42:19.631Z,6.70
2022-11-04T23:45:05.639Z,5.13
2022-11-04T23:47:50.938Z,4.73
2022-11-04T23:50:36.069Z,5.10
2022-11-04T23:53:21.539Z,6.03
2022-11-04T23:56:06.719Z,5.63
2022-11-04T23:58:53.103Z,8.60
